Time;durP1;ratioP1;P1;durP2;ratioP2;P2;SDS_P1;SDS_P2;PMS_P1;PMS_P2;Temp;Humidity;BMP_temperature;BMP_pressure;BME280_temperature;BME280_humidity;BME280_pressure;Samples;Min_cycle;Max_cycle;Signal;HPM_P1;HPM_P2
2023/09/13 00:01:39;;;;;;;17.30;8.57;;;;;;;;;;5007102;28;20337;-69
2023/09/13 00:04:05;;;;;;;19.23;8.77;;;;;;;;;;5006641;28;20556;-72
2023/09/13 00:06:30;;;;;;;18.48;9.00;;;;;;;;;;5007082;28;20397;-70
2023/09/13 00:08:55;;;;;;;17.10;8.70;;;;;;;;;;5004622;28;20521;-72
2023/09/13 00:11:20;;;;;;;16.95;7.82;;;;;;;;;;5002062;28;20247;-72
2023/09/13 00:13:45;;;;;;;22.80;7.88;;;;;;;;;;5005703;28;20492;-68
2023/09/13 00:16:11;;;;;;;13.52;7.47;;;;;;;;;;5006932;28;20353;-71
2023/09/13 00:18:36;;;;;;;17.23;8.98;;;;;;;;;;4996945;28;20022;-70
2023/09/13 00:21:01;;;;;;;17.10;9.55;;;;;;;;;;4996745;28;20142;-72
2023/09/13 00:23:27;;;;;;;15.60;9.48;;;;;;;;;;5007001;28;20053;-71
2023/09/13 00:25:52;;;;;;;21.02;10.25;;;;;;;;;;5006806;28;20034;-69
2023/09/13 00:28:17;;;;;;;38.27;14.33;;;;;;;;;;5006876;28;20018;-70
2023/09/13 00:30:42;;;;;;;16.60;11.68;;;;;;;;;;5004849;28;20363;-71
2023/09/13 00:33:08;;;;;;;18.48;10.88;;;;;;;;;;5009977;28;20045;-68
2023/09/13 00:35:33;;;;;;;29.20;11.95;;;;;;;;;;5010191;28;20013;-72
2023/09/13 00:37:58;;;;;;;22.48;13.35;;;;;;;;;;5010504;28;20129;-70
2023/09/13 00:40:23;;;;;;;21.60;11.82;;;;;;;;;;5010141;28;20058;-71
2023/09/13 00:42:49;;;;;;;22.90;12.32;;;;;;;;;;5011994;28;20022;-70
2023/09/13 00:45:14;;;;;;;21.23;11.48;;;;;;;;;;5010063;28;20022;-68
2023/09/13 00:47:40;;;;;;;21.83;12.00;;;;;;;;;;5009874;28;20025;-70
2023/09/13 00:50:07;;;;;;;19.77;11.88;;;;;;;;;;5009541;28;20032;-70
2023/09/13 00:52:33;;;;;;;19.63;12.35;;;;;;;;;;5008963;28;20041;-70
2023/09/13 00:54:58;;;;;;;22.42;11.93;;;;;;;;;;5000714;28;20038;-71
2023/09/13 00:57:23;;;;;;;19.90;11.20;;;;;;;;;;5009696;28;20036;-72
2023/09/13 00:59:48;;;;;;;26.23;11.73;;;;;;;;;;5006642;28;20105;-72
2023/09/13 01:02:14;;;;;;;18.33;10.85;;;;;;;;;;5009789;28;20017;-69
2023/09/13 01:04:39;;;;;;;22.13;12.18;;;;;;;;;;5009615;28;20068;-71
2023/09/13 01:07:06;;;;;;;22.20;11.73;;;;;;;;;;5009330;28;20095;-69
2023/09/13 01:09:31;;;;;;;20.40;11.20;;;;;;;;;;5010272;28;20108;-73
2023/09/13 01:11:57;;;;;;;22.35;11.52;;;;;;;;;;5009985;28;20093;-68
2023/09/13 01:14:22;;;;;;;19.90;11.80;;;;;;;;;;5008104;28;20024;-72
2023/09/13 01:16:53;;;;;;;18.08;10.75;;;;;;;;;;5009313;28;20036;-72
2023/09/13 01:19:21;;;;;;;35.85;11.05;;;;;;;;;;5007340;28;20021;-73
2023/09/13 01:21:58;;;;;;;15.15;9.43;;;;;;;;;;5009906;28;20024;-73
2023/09/13 01:24:23;;;;;;;19.17;10.50;;;;;;;;;;5002417;28;20385;-73
2023/09/13 01:26:58;;;;;;;19.20;10.00;;;;;;;;;;5006407;28;20461;-72
2023/09/13 01:29:25;;;;;;;17.38;9.70;;;;;;;;;;5002232;28;20937;-74
2023/09/13 01:31:50;;;;;;;19.25;10.18;;;;;;;;;;5009563;28;20056;-70
2023/09/13 01:34:15;;;;;;;19.90;10.98;;;;;;;;;;5009115;28;20018;-74
2023/09/13 01:36:41;;;;;;;16.90;10.80;;;;;;;;;;5009240;28;20092;-73
2023/09/13 01:39:06;;;;;;;18.73;11.20;;;;;;;;;;5008682;28;20022;-72
2023/09/13 01:41:36;;;;;;;19.65;11.52;;;;;;;;;;5009806;28;20022;-73
2023/09/13 01:44:01;;;;;;;16.52;10.02;;;;;;;;;;5010988;28;20026;-73
2023/09/13 01:46:29;;;;;;;21.83;10.35;;;;;;;;;;5009559;28;20448;-73
2023/09/13 01:48:56;;;;;;;22.05;10.20;;;;;;;;;;5009493;28;20010;-74
2023/09/13 01:51:21;;;;;;;15.48;8.80;;;;;;;;;;5002737;28;20034;-70
2023/09/13 01:53:47;;;;;;;14.40;8.00;;;;;;;;;;5009848;28;20465;-71
2023/09/13 01:56:13;;;;;;;17.30;7.55;;;;;;;;;;5006447;28;20025;-72
2023/09/13 01:58:38;;;;;;;12.43;7.55;;;;;;;;;;5009703;28;20032;-71
2023/09/13 02:01:03;;;;;;;15.30;7.25;;;;;;;;;;5008870;28;20028;-72
2023/09/13 02:03:28;;;;;;;12.82;7.38;;;;;;;;;;5009892;28;20136;-71
2023/09/13 02:05:53;;;;;;;13.50;6.88;;;;;;;;;;5008400;28;20072;-72
2023/09/13 02:08:19;;;;;;;16.45;6.07;;;;;;;;;;5001569;28;20028;-72
2023/09/13 02:10:48;;;;;;;13.13;8.00;;;;;;;;;;5005356;28;20034;-73
2023/09/13 02:13:13;;;;;;;14.55;6.85;;;;;;;;;;5008776;28;20014;-73
2023/09/13 02:15:39;;;;;;;14.10;7.07;;;;;;;;;;5003545;28;20024;-72
2023/09/13 02:18:05;;;;;;;15.43;7.70;;;;;;;;;;5001157;28;20401;-73
2023/09/13 02:20:30;;;;;;;11.18;6.95;;;;;;;;;;5003550;28;20087;-72
2023/09/13 02:22:55;;;;;;;17.42;6.50;;;;;;;;;;5008511;28;20461;-72
2023/09/13 02:25:20;;;;;;;23.88;7.40;;;;;;;;;;5007492;28;20030;-72
2023/09/13 02:27:45;;;;;;;12.23;6.20;;;;;;;;;;5008652;28;20022;-74
2023/09/13 02:30:11;;;;;;;13.63;6.43;;;;;;;;;;5001100;28;20033;-73
2023/09/13 02:32:36;;;;;;;13.90;6.60;;;;;;;;;;5003605;28;20515;-70
2023/09/13 02:35:02;;;;;;;15.98;6.55;;;;;;;;;;5007329;28;20022;-72
2023/09/13 02:37:28;;;;;;;14.20;6.85;;;;;;;;;;5008042;28;20026;-71
2023/09/13 02:39:53;;;;;;;16.65;6.45;;;;;;;;;;5007822;28;20101;-70
2023/09/13 02:42:18;;;;;;;12.07;6.30;;;;;;;;;;5002007;28;20032;-71
2023/09/13 02:44:43;;;;;;;9.93;5.82;;;;;;;;;;5009522;28;20045;-73
2023/09/13 02:47:09;;;;;;;15.13;6.70;;;;;;;;;;5007620;28;20495;-71
2023/09/13 02:49:34;;;;;;;11.10;6.20;;;;;;;;;;5004103;28;20033;-72
2023/09/13 02:51:59;;;;;;;11.55;6.50;;;;;;;;;;5004213;28;20029;-71
2023/09/13 02:54:24;;;;;;;14.35;7.13;;;;;;;;;;5001037;28;20023;-72
2023/09/13 02:56:50;;;;;;;12.77;7.63;;;;;;;;;;5001983;28;20496;-71
2023/09/13 02:59:15;;;;;;;15.60;7.80;;;;;;;;;;5004769;28;20010;-69
2023/09/13 03:01:42;;;;;;;17.13;8.52;;;;;;;;;;5002512;28;20030;-72
2023/09/13 03:04:07;;;;;;;17.95;8.70;;;;;;;;;;5001101;28;20026;-74
2023/09/13 03:06:32;;;;;;;13.68;7.07;;;;;;;;;;4989594;28;20032;-74
2023/09/13 03:08:57;;;;;;;17.00;8.15;;;;;;;;;;4998011;28;20028;-70
2023/09/13 03:11:23;;;;;;;21.45;7.95;;;;;;;;;;5007201;28;20452;-71
2023/09/13 03:13:48;;;;;;;21.55;8.00;;;;;;;;;;5007638;28;20053;-71
2023/09/13 03:16:17;;;;;;;20.02;8.35;;;;;;;;;;5007083;28;20101;-71
2023/09/13 03:18:43;;;;;;;18.27;9.77;;;;;;;;;;4999586;28;20112;-72
2023/09/13 03:21:09;;;;;;;15.43;9.15;;;;;;;;;;5000859;28;20186;-72
2023/09/13 03:23:38;;;;;;;14.60;8.23;;;;;;;;;;5005720;28;20022;-72
2023/09/13 03:26:03;;;;;;;;;;;;;;;;;;5007086;28;20369;-74
2023/09/13 03:28:28;;;;;;;16.73;7.90;;;;;;;;;;5007135;28;19909;-71
2023/09/13 03:30:53;;;;;;;19.33;7.15;;;;;;;;;;5007258;28;20028;-71
2023/09/13 03:33:18;;;;;;;13.48;6.53;;;;;;;;;;5004779;28;20022;-71
2023/09/13 03:35:44;;;;;;;14.70;8.15;;;;;;;;;;4999461;28;20032;-72
2023/09/13 03:38:09;;;;;;;19.88;8.65;;;;;;;;;;5006672;28;20041;-72
2023/09/13 03:40:34;;;;;;;14.70;8.63;;;;;;;;;;5007699;28;20057;-70
2023/09/13 03:42:59;;;;;;;16.08;8.63;;;;;;;;;;4989956;28;20089;-73
2023/09/13 03:45:24;;;;;;;19.10;8.52;;;;;;;;;;5006023;28;20033;-70
2023/09/13 03:47:50;;;;;;;22.63;9.18;;;;;;;;;;5003627;28;20534;-72
2023/09/13 03:50:15;;;;;;;17.48;7.90;;;;;;;;;;5005984;28;20497;-72
2023/09/13 03:52:40;;;;;;;16.85;8.18;;;;;;;;;;5003307;28;20036;-74
2023/09/13 03:55:06;;;;;;;16.92;8.60;;;;;;;;;;5004042;28;20500;-72
2023/09/13 03:57:31;;;;;;;15.68;8.13;;;;;;;;;;5001509;28;20132;-72
2023/09/13 03:59:57;;;;;;;13.93;7.72;;;;;;;;;;5003524;28;20102;-70
2023/09/13 04:02:22;;;;;;;22.48;8.20;;;;;;;;;;5007966;28;20050;-73
2023/09/13 04:04:47;;;;;;;19.63;7.82;;;;;;;;;;5006632;28;20026;-71
2023/09/13 04:07:13;;;;;;;21.67;7.97;;;;;;;;;;5008354;28;20054;-71
2023/09/13 04:09:38;;;;;;;18.23;8.10;;;;;;;;;;5006007;28;20065;-72
2023/09/13 04:12:04;;;;;;;16.35;7.47;;;;;;;;;;5009218;28;20054;-71
2023/09/13 04:14:29;;;;;;;11.73;6.97;;;;;;;;;;5005491;28;20538;-72
2023/09/13 04:16:54;;;;;;;26.27;7.28;;;;;;;;;;5010686;28;20024;-71
2023/09/13 04:19:19;;;;;;;16.63;7.47;;;;;;;;;;5001852;28;20026;-72
2023/09/13 04:21:45;;;;;;;17.00;7.50;;;;;;;;;;5005316;28;20069;-69
2023/09/13 04:24:10;;;;;;;16.85;7.63;;;;;;;;;;5005195;28;20137;-71
2023/09/13 04:26:36;;;;;;;22.52;9.48;;;;;;;;;;5010410;28;20120;-71
2023/09/13 04:29:02;;;;;;;16.50;8.57;;;;;;;;;;5004915;28;20030;-72
2023/09/13 04:31:28;;;;;;;14.75;8.52;;;;;;;;;;5009523;28;20021;-70
2023/09/13 04:33:54;;;;;;;15.20;8.93;;;;;;;;;;5010298;28;20029;-71
2023/09/13 04:36:19;;;;;;;22.38;8.95;;;;;;;;;;5004105;28;20056;-71
2023/09/13 04:38:46;;;;;;;23.38;9.40;;;;;;;;;;5010749;28;20026;-70
2023/09/13 04:41:13;;;;;;;16.17;8.52;;;;;;;;;;5007736;28;20022;-72
2023/09/13 04:43:38;;;;;;;23.95;8.18;;;;;;;;;;5008530;28;20109;-71
2023/09/13 04:46:03;;;;;;;18.33;7.72;;;;;;;;;;5010111;28;20557;-71
2023/09/13 04:48:29;;;;;;;20.65;7.85;;;;;;;;;;5008839;28;20528;-70
2023/09/13 04:50:54;;;;;;;13.50;7.60;;;;;;;;;;5037460;23;20542;-67
2023/09/13 04:53:19;;;;;;;18.70;7.90;;;;;;;;;;5032477;28;20021;-67
2023/09/13 04:55:44;;;;;;;19.23;7.47;;;;;;;;;;5031941;28;20034;-70
2023/09/13 04:58:10;;;;;;;12.52;6.85;;;;;;;;;;5031833;28;20021;-67
2023/09/13 05:00:35;;;;;;;11.75;6.57;;;;;;;;;;5017423;28;20497;-67
2023/09/13 05:03:00;;;;;;;14.43;6.43;;;;;;;;;;5012202;28;20040;-64
2023/09/13 05:05:25;;;;;;;12.00;6.28;;;;;;;;;;5011670;28;20362;-68
2023/09/13 05:07:51;;;;;;;15.30;6.70;;;;;;;;;;5011830;28;20442;-67
2023/09/13 05:10:16;;;;;;;12.02;6.38;;;;;;;;;;5011750;28;20030;-67
2023/09/13 05:12:41;;;;;;;13.45;6.50;;;;;;;;;;5011516;28;20092;-67
2023/09/13 05:15:07;;;;;;;15.20;7.03;;;;;;;;;;5011089;28;20034;-66
2023/09/13 05:17:32;;;;;;;14.85;6.90;;;;;;;;;;5010528;28;20105;-65
2023/09/13 05:19:57;;;;;;;17.90;6.30;;;;;;;;;;5010207;28;20026;-67
2023/09/13 05:22:22;;;;;;;13.23;7.28;;;;;;;;;;5011486;28;20034;-69
2023/09/13 05:24:48;;;;;;;14.20;6.30;;;;;;;;;;5008660;28;20095;-66
2023/09/13 05:27:13;;;;;;;13.35;6.20;;;;;;;;;;5010817;28;20233;-66
2023/09/13 05:29:38;;;;;;;12.20;6.18;;;;;;;;;;5011577;28;20021;-69
2023/09/13 05:32:04;;;;;;;12.85;6.53;;;;;;;;;;5010462;28;20029;-70
2023/09/13 05:34:29;;;;;;;14.18;5.75;;;;;;;;;;5009462;28;20473;-68
2023/09/13 05:36:55;;;;;;;14.85;6.57;;;;;;;;;;5010746;28;20026;-67
2023/09/13 05:39:20;;;;;;;14.88;6.60;;;;;;;;;;5011315;28;20018;-70
2023/09/13 05:41:46;;;;;;;16.10;6.43;;;;;;;;;;5009625;28;20253;-69
2023/09/13 05:44:17;;;;;;;14.35;6.15;;;;;;;;;;5012824;28;20104;-66
2023/09/13 05:46:42;;;;;;;13.70;6.55;;;;;;;;;;5011442;28;20522;-67
2023/09/13 05:49:08;;;;;;;13.40;6.63;;;;;;;;;;5011318;28;20493;-68
2023/09/13 05:51:33;;;;;;;13.30;6.72;;;;;;;;;;5010803;28;20084;-68
2023/09/13 05:53:58;;;;;;;18.83;7.33;;;;;;;;;;5010289;28;20049;-69
2023/09/13 05:56:23;;;;;;;12.68;5.68;;;;;;;;;;5011388;28;20264;-70
2023/09/13 05:58:48;;;;;;;12.75;5.72;;;;;;;;;;5011271;28;20452;-66
2023/09/13 06:01:14;;;;;;;12.77;6.28;;;;;;;;;;5011324;28;20030;-69
2023/09/13 06:03:39;;;;;;;13.60;6.60;;;;;;;;;;5010495;28;20014;-68
2023/09/13 06:06:04;;;;;;;11.52;5.95;;;;;;;;;;5009717;28;20026;-68
2023/09/13 06:08:30;;;;;;;11.18;5.50;;;;;;;;;;5010833;28;20022;-71
2023/09/13 06:10:55;;;;;;;11.82;5.68;;;;;;;;;;4992446;28;20022;-69
2023/09/13 06:13:20;;;;;;;10.75;5.63;;;;;;;;;;5010036;28;20029;-68
2023/09/13 06:15:45;;;;;;;13.50;5.35;;;;;;;;;;5009897;28;20022;-68
2023/09/13 06:18:11;;;;;;;10.07;4.60;;;;;;;;;;5007719;28;20018;-67
2023/09/13 06:20:36;;;;;;;11.27;4.40;;;;;;;;;;5010617;28;20041;-67
2023/09/13 06:23:01;;;;;;;13.10;4.30;;;;;;;;;;5009678;28;20536;-66
2023/09/13 06:25:26;;;;;;;10.10;4.30;;;;;;;;;;5011137;28;20207;-70
2023/09/13 06:27:52;;;;;;;7.47;3.90;;;;;;;;;;5010302;28;20038;-69
2023/09/13 06:30:17;;;;;;;11.32;4.20;;;;;;;;;;5010140;28;20024;-66
2023/09/13 06:32:42;;;;;;;9.68;4.15;;;;;;;;;;5009699;28;20021;-68
2023/09/13 06:35:11;;;;;;;7.32;3.28;;;;;;;;;;5009073;28;20048;-68
2023/09/13 06:37:37;;;;;;;12.60;3.90;;;;;;;;;;5010101;28;20049;-68
2023/09/13 06:40:03;;;;;;;7.82;3.45;;;;;;;;;;5009891;28;20397;-66
2023/09/13 06:42:28;;;;;;;9.70;3.80;;;;;;;;;;5010824;28;20022;-68
2023/09/13 06:44:53;;;;;;;8.60;3.72;;;;;;;;;;5011531;28;20116;-67
2023/09/13 06:47:18;;;;;;;11.02;3.65;;;;;;;;;;5009277;28;20080;-67
2023/09/13 06:49:44;;;;;;;8.27;3.50;;;;;;;;;;5009381;28;20026;-68
2023/09/13 06:52:09;;;;;;;6.95;3.97;;;;;;;;;;5009097;28;20072;-67
2023/09/13 06:54:34;;;;;;;11.75;4.18;;;;;;;;;;5009403;28;20022;-69
2023/09/13 06:56:59;;;;;;;9.43;4.30;;;;;;;;;;5009584;28;20488;-68
2023/09/13 06:59:25;;;;;;;8.32;4.72;;;;;;;;;;5009100;28;20024;-68
2023/09/13 07:01:50;;;;;;;10.15;5.57;;;;;;;;;;5009878;28;20109;-66
2023/09/13 07:04:17;;;;;;;10.75;5.53;;;;;;;;;;5009197;28;20504;-69
2023/09/13 07:06:42;;;;;;;10.25;5.13;;;;;;;;;;5009712;28;20018;-67
2023/09/13 07:09:09;;;;;;;11.00;4.85;;;;;;;;;;5008276;28;20049;-68
2023/09/13 07:11:34;;;;;;;13.52;4.38;;;;;;;;;;5010343;28;20064;-68
2023/09/13 07:14:00;;;;;;;11.02;3.55;;;;;;;;;;5009582;28;20093;-67
2023/09/13 07:16:25;;;;;;;8.32;4.22;;;;;;;;;;5009632;28;20030;-69
2023/09/13 07:18:51;;;;;;;11.65;4.47;;;;;;;;;;5007324;28;20084;-69
2023/09/13 07:21:17;;;;;;;6.72;3.88;;;;;;;;;;5009723;28;20026;-65
2023/09/13 07:23:42;;;;;;;6.97;2.75;;;;;;;;;;5009516;28;20535;-69
2023/09/13 07:26:08;;;;;;;5.95;2.90;;;;;;;;;;5009222;28;20057;-67
2023/09/13 07:28:33;;;;;;;6.78;2.80;;;;;;;;;;5009180;28;20017;-67
2023/09/13 07:30:58;;;;;;;6.03;2.65;;;;;;;;;;5009244;28;20461;-66
2023/09/13 07:33:23;;;;;;;6.78;3.10;;;;;;;;;;5009892;28;20013;-69
2023/09/13 07:35:49;;;;;;;4.17;2.27;;;;;;;;;;5009196;28;20496;-68
2023/09/13 07:38:14;;;;;;;4.82;2.10;;;;;;;;;;5009356;28;20286;-68
2023/09/13 07:40:40;;;;;;;4.00;2.10;;;;;;;;;;5008926;28;20029;-68
2023/09/13 07:43:05;;;;;;;7.32;2.00;;;;;;;;;;5011407;28;20020;-66
2023/09/13 07:45:32;;;;;;;5.95;2.50;;;;;;;;;;5009111;28;20033;-67
2023/09/13 07:47:59;;;;;;;10.68;2.30;;;;;;;;;;5008906;28;20176;-70
2023/09/13 07:50:32;;;;;;;6.65;2.00;;;;;;;;;;5008505;28;20036;-69
2023/09/13 07:52:57;;;;;;;4.20;2.03;;;;;;;;;;5006169;28;20017;-66
2023/09/13 07:55:23;;;;;;;4.53;2.38;;;;;;;;;;5009026;28;20029;-68
2023/09/13 07:57:48;;;;;;;7.25;2.42;;;;;;;;;;5004941;28;20021;-65
2023/09/13 08:00:13;;;;;;;7.20;2.70;;;;;;;;;;5008455;28;20018;-68
2023/09/13 08:02:41;;;;;;;4.05;2.20;;;;;;;;;;5012042;28;20026;-68
2023/09/13 08:05:06;;;;;;;4.88;2.17;;;;;;;;;;5009531;28;20018;-69
2023/09/13 08:07:31;;;;;;;2.95;1.90;;;;;;;;;;5010041;28;20078;-68
2023/09/13 08:09:57;;;;;;;7.10;2.17;;;;;;;;;;5009795;28;20370;-68
2023/09/13 08:12:22;;;;;;;8.13;2.47;;;;;;;;;;5010155;28;20022;-66
2023/09/13 08:14:47;;;;;;;7.03;2.05;;;;;;;;;;5003325;28;20030;-67
2023/09/13 08:17:12;;;;;;;7.25;2.65;;;;;;;;;;5008625;28;20080;-69
2023/09/13 08:19:38;;;;;;;5.10;1.73;;;;;;;;;;5006340;28;20230;-67
2023/09/13 08:22:04;;;;;;;6.53;2.28;;;;;;;;;;5009046;28;20109;-66
2023/09/13 08:24:29;;;;;;;5.85;2.60;;;;;;;;;;5008452;28;20026;-68
2023/09/13 08:26:54;;;;;;;5.40;1.77;;;;;;;;;;5008817;28;20030;-70
2023/09/13 08:29:20;;;;;;;3.35;1.50;;;;;;;;;;5008864;28;20044;-68
2023/09/13 08:31:45;;;;;;;3.85;1.63;;;;;;;;;;5008987;28;20014;-66
2023/09/13 08:34:10;;;;;;;3.35;1.48;;;;;;;;;;5009334;28;20044;-68
2023/09/13 08:36:35;;;;;;;4.03;1.50;;;;;;;;;;5009317;28;20156;-67
2023/09/13 08:39:01;;;;;;;4.40;2.13;;;;;;;;;;5008452;28;20084;-68
2023/09/13 08:41:26;;;;;;;2.08;1.35;;;;;;;;;;5008819;28;20026;-66
2023/09/13 08:43:52;;;;;;;5.32;2.00;;;;;;;;;;5011375;28;20022;-66
2023/09/13 08:46:17;;;;;;;4.07;1.65;;;;;;;;;;5008627;28;20029;-66
2023/09/13 08:48:43;;;;;;;2.85;1.52;;;;;;;;;;5008614;28;20048;-68
2023/09/13 08:51:09;;;;;;;4.22;1.80;;;;;;;;;;5007821;28;20050;-69
2023/09/13 08:53:36;;;;;;;3.20;1.55;;;;;;;;;;5011615;28;20295;-68
2023/09/13 08:56:01;;;;;;;6.85;1.90;;;;;;;;;;5011075;28;20453;-66
2023/09/13 08:58:26;;;;;;;5.60;1.67;;;;;;;;;;5011991;28;20032;-68
2023/09/13 09:00:52;;;;;;;6.55;1.90;;;;;;;;;;4993946;28;20026;-67
2023/09/13 09:03:17;;;;;;;4.30;2.00;;;;;;;;;;5010639;28;20013;-67
2023/09/13 09:05:44;;;;;;;4.35;1.65;;;;;;;;;;5011843;28;20022;-67
2023/09/13 09:08:10;;;;;;;4.07;1.88;;;;;;;;;;5011524;28;20053;-67
2023/09/13 09:10:35;;;;;;;3.58;1.65;;;;;;;;;;5011507;28;20022;-68
2023/09/13 09:13:01;;;;;;;3.88;2.00;;;;;;;;;;5012250;28;20010;-68
2023/09/13 09:15:26;;;;;;;4.53;2.33;;;;;;;;;;5011274;28;20464;-66
2023/09/13 09:17:53;;;;;;;4.40;2.10;;;;;;;;;;5009841;28;20017;-69
2023/09/13 09:20:19;;;;;;;4.40;2.05;;;;;;;;;;5011025;28;20071;-68
2023/09/13 09:22:44;;;;;;;14.35;2.10;;;;;;;;;;5012019;28;20028;-67
2023/09/13 09:25:10;;;;;;;3.45;1.98;;;;;;;;;;5012458;28;20018;-68
2023/09/13 09:27:37;;;;;;;4.93;1.52;;;;;;;;;;5014018;28;20558;-68
2023/09/13 09:30:03;;;;;;;6.03;1.90;;;;;;;;;;5011309;28;20037;-68
2023/09/13 09:32:28;;;;;;;3.83;2.15;;;;;;;;;;5011714;28;20018;-68
2023/09/13 09:34:55;;;;;;;4.88;2.08;;;;;;;;;;5011215;28;20474;-66
2023/09/13 09:37:27;;;;;;;7.80;2.05;;;;;;;;;;5011482;28;20025;-68
2023/09/13 09:39:52;;;;;;;3.78;1.60;;;;;;;;;;5011613;28;20510;-69
2023/09/13 09:42:18;;;;;;;3.93;1.90;;;;;;;;;;5011421;28;20026;-70
2023/09/13 09:44:43;;;;;;;3.58;1.65;;;;;;;;;;5014800;28;20262;-68
2023/09/13 09:47:12;;;;;;;5.00;1.70;;;;;;;;;;5011696;28;20028;-68
2023/09/13 09:49:37;;;;;;;3.35;1.70;;;;;;;;;;5011066;28;20080;-66
2023/09/13 09:52:02;;;;;;;6.38;1.50;;;;;;;;;;5012382;28;20018;-68
2023/09/13 09:54:28;;;;;;;3.20;1.65;;;;;;;;;;5011205;28;20025;-68
2023/09/13 09:56:53;;;;;;;3.20;1.55;;;;;;;;;;5010808;28;20022;-68
2023/09/13 09:59:18;;;;;;;7.32;2.00;;;;;;;;;;4992837;28;20041;-68
2023/09/13 10:01:45;;;;;;;3.70;1.75;;;;;;;;;;5010862;28;20404;-66
2023/09/13 10:04:11;;;;;;;4.40;1.90;;;;;;;;;;4991562;28;20022;-67
2023/09/13 10:06:36;;;;;;;5.22;2.10;;;;;;;;;;5010483;28;20033;-67
2023/09/13 10:09:03;;;;;;;4.17;1.90;;;;;;;;;;5010569;28;20097;-68
2023/09/13 10:11:29;;;;;;;4.20;1.87;;;;;;;;;;5010682;28;20259;-69
2023/09/13 10:13:54;;;;;;;4.82;2.55;;;;;;;;;;5008065;28;20009;-67
2023/09/13 10:16:20;;;;;;;5.75;2.20;;;;;;;;;;5010104;28;20037;-68
2023/09/13 10:18:49;;;;;;;5.07;2.10;;;;;;;;;;5010586;28;20069;-66
2023/09/13 10:21:17;;;;;;;4.82;2.03;;;;;;;;;;5010528;28;20089;-68
2023/09/13 10:23:44;;;;;;;4.73;2.30;;;;;;;;;;5010632;28;20025;-66
2023/09/13 10:26:11;;;;;;;5.38;1.90;;;;;;;;;;5010291;28;20632;-68
2023/09/13 10:28:41;;;;;;;6.25;2.30;;;;;;;;;;5011197;28;20026;-66
2023/09/13 10:31:10;;;;;;;3.67;1.90;;;;;;;;;;5010071;28;20018;-68
2023/09/13 10:33:38;;;;;;;4.38;2.08;;;;;;;;;;5007259;28;20049;-68
2023/09/13 10:36:06;;;;;;;7.15;2.35;;;;;;;;;;5009462;28;20017;-69
2023/09/13 10:38:35;;;;;;;4.28;1.83;;;;;;;;;;5010512;28;20103;-67
2023/09/13 10:41:05;;;;;;;4.07;2.00;;;;;;;;;;5010460;28;20026;-69
2023/09/13 10:43:31;;;;;;;3.55;1.77;;;;;;;;;;5014193;28;20014;-68
2023/09/13 10:45:57;;;;;;;3.28;1.90;;;;;;;;;;5009997;28;20097;-68
2023/09/13 10:48:23;;;;;;;4.18;1.90;;;;;;;;;;5009786;28;20113;-67
2023/09/13 10:50:49;;;;;;;4.93;2.20;;;;;;;;;;5010516;28;20033;-68
2023/09/13 10:53:15;;;;;;;3.53;1.80;;;;;;;;;;5010187;28;20072;-72
2023/09/13 10:55:40;;;;;;;4.55;2.20;;;;;;;;;;5010864;28;20018;-69
2023/09/13 10:58:06;;;;;;;5.47;2.20;;;;;;;;;;5011328;28;20528;-69
2023/09/13 11:00:32;;;;;;;5.95;1.73;;;;;;;;;;4976756;28;20543;-69
2023/09/13 11:02:58;;;;;;;3.17;1.80;;;;;;;;;;5010693;28;20026;-70
2023/09/13 11:05:23;;;;;;;4.35;2.33;;;;;;;;;;5010976;28;20117;-69
2023/09/13 11:07:49;;;;;;;2.95;1.75;;;;;;;;;;5011013;28;20022;-69
2023/09/13 11:10:18;;;;;;;4.05;1.80;;;;;;;;;;5010170;28;20034;-71
2023/09/13 11:12:48;;;;;;;5.03;1.92;;;;;;;;;;5009912;28;20264;-70
2023/09/13 11:15:23;;;;;;;5.50;2.03;;;;;;;;;;5004353;28;20018;-71
2023/09/13 11:17:50;;;;;;;5.57;2.00;;;;;;;;;;5010015;28;20026;-69
2023/09/13 11:20:28;;;;;;;3.53;1.70;;;;;;;;;;5009887;28;20076;-69
2023/09/13 11:23:00;;;;;;;4.78;2.08;;;;;;;;;;5010071;28;20025;-72
2023/09/13 11:25:29;;;;;;;4.22;1.60;;;;;;;;;;5002237;28;20026;-71
2023/09/13 11:27:56;;;;;;;3.97;1.95;;;;;;;;;;5009833;28;20489;-71
2023/09/13 11:30:41;;;;;;;5.70;1.73;;;;;;;;;;5014232;28;20037;-66
2023/09/13 11:33:06;;;;;;;3.47;1.73;;;;;;;;;;5009269;28;20097;-69
2023/09/13 11:35:34;;;;;;;6.40;2.15;;;;;;;;;;5009644;28;20052;-68
2023/09/13 11:37:59;;;;;;;5.03;2.03;;;;;;;;;;5009071;28;20034;-69
2023/09/13 11:40:24;;;;;;;4.60;1.70;;;;;;;;;;5009267;28;20037;-70
2023/09/13 11:42:51;;;;;;;5.78;1.85;;;;;;;;;;5011313;28;20054;-69
2023/09/13 11:45:17;;;;;;;3.60;1.83;;;;;;;;;;5009975;28;20122;-70
2023/09/13 11:47:42;;;;;;;5.18;1.85;;;;;;;;;;5009372;28;20034;-71
2023/09/13 11:50:08;;;;;;;5.10;2.20;;;;;;;;;;5008700;28;20560;-68
2023/09/13 11:52:53;;;;;;;4.03;1.98;;;;;;;;;;5010048;28;20018;-67
2023/09/13 11:55:25;;;;;;;3.58;1.80;;;;;;;;;;4998494;28;20030;-71
2023/09/13 11:57:51;;;;;;;6.82;2.22;;;;;;;;;;5005338;28;20495;-70
2023/09/13 12:00:22;;;;;;;6.85;2.22;;;;;;;;;;5008754;28;20029;-68
2023/09/13 12:02:47;;;;;;;5.20;2.20;;;;;;;;;;5009269;28;20025;-67
2023/09/13 12:05:12;;;;;;;4.18;2.10;;;;;;;;;;5008246;28;20018;-70
2023/09/13 12:07:38;;;;;;;5.50;1.93;;;;;;;;;;5009038;28;20385;-69
2023/09/13 12:10:04;;;;;;;3.92;1.67;;;;;;;;;;5009169;28;20267;-69
2023/09/13 12:12:38;;;;;;;5.03;2.03;;;;;;;;;;5009108;28;20026;-67
2023/09/13 12:15:05;;;;;;;5.70;1.95;;;;;;;;;;5008333;28;20022;-69
2023/09/13 12:17:36;;;;;;;4.50;1.70;;;;;;;;;;5009559;28;20026;-68
2023/09/13 12:20:04;;;;;;;4.68;2.00;;;;;;;;;;5008692;28;20026;-69
2023/09/13 12:22:30;;;;;;;3.15;1.90;;;;;;;;;;5010455;28;20037;-69
2023/09/13 12:24:58;;;;;;;6.57;1.80;;;;;;;;;;5009382;28;20025;-69
2023/09/13 12:27:23;;;;;;;8.75;1.67;;;;;;;;;;5001719;28;20275;-68
2023/09/13 12:29:48;;;;;;;4.82;1.77;;;;;;;;;;5012828;28;20024;-69
2023/09/13 12:32:14;;;;;;;7.45;2.03;;;;;;;;;;5012686;28;20092;-70
2023/09/13 12:34:39;;;;;;;10.77;1.88;;;;;;;;;;4994602;28;20108;-67
2023/09/13 12:37:06;;;;;;;5.70;1.60;;;;;;;;;;5012137;28;20033;-69
2023/09/13 12:39:31;;;;;;;2.72;1.45;;;;;;;;;;4994656;28;20118;-67
2023/09/13 12:41:56;;;;;;;4.45;1.98;;;;;;;;;;5010093;28;20096;-69
2023/09/13 12:44:22;;;;;;;7.10;2.58;;;;;;;;;;5012750;28;20030;-68
2023/09/13 12:46:48;;;;;;;18.35;1.73;;;;;;;;;;5012550;28;20010;-70
2023/09/13 12:49:14;;;;;;;4.40;1.77;;;;;;;;;;5011298;28;20117;-69
2023/09/13 12:51:40;;;;;;;7.03;1.88;;;;;;;;;;5012525;28;20095;-69
2023/09/13 12:54:06;;;;;;;5.32;1.60;;;;;;;;;;5012136;28;20477;-69
2023/09/13 12:56:32;;;;;;;3.13;1.60;;;;;;;;;;5013479;28;20033;-66
2023/09/13 12:58:57;;;;;;;2.47;1.38;;;;;;;;;;5012578;28;20029;-69
2023/09/13 13:01:24;;;;;;;8.25;1.80;;;;;;;;;;5009068;28;20026;-70
2023/09/13 13:03:55;;;;;;;9.80;2.05;;;;;;;;;;5011802;28;20135;-68
2023/09/13 13:06:20;;;;;;;9.70;2.45;;;;;;;;;;5011807;28;20021;-67
2023/09/13 13:08:47;;;;;;;4.82;2.20;;;;;;;;;;5011564;28;20021;-69
2023/09/13 13:11:12;;;;;;;8.65;2.58;;;;;;;;;;5012148;28;20381;-69
2023/09/13 13:13:38;;;;;;;4.70;2.15;;;;;;;;;;5010532;28;20022;-71
2023/09/13 13:16:17;;;;;;;7.70;2.20;;;;;;;;;;5012277;28;20389;-72
2023/09/13 13:18:45;;;;;;;4.32;2.08;;;;;;;;;;5012698;28;20018;-70
2023/09/13 13:21:14;;;;;;;5.80;2.10;;;;;;;;;;5011359;28;20018;-70
2023/09/13 13:23:45;;;;;;;6.35;1.95;;;;;;;;;;5011402;28;20033;-68
2023/09/13 13:26:11;;;;;;;11.85;2.30;;;;;;;;;;5010890;28;20017;-68
2023/09/13 13:28:36;;;;;;;4.63;2.00;;;;;;;;;;5012704;28;20097;-71
2023/09/13 13:31:02;;;;;;;4.30;2.00;;;;;;;;;;5012116;28;20017;-71
2023/09/13 13:33:27;;;;;;;3.95;1.75;;;;;;;;;;5012022;28;20045;-69
2023/09/13 13:35:52;;;;;;;6.00;2.05;;;;;;;;;;5011670;28;20029;-68
2023/09/13 13:38:18;;;;;;;5.47;2.03;;;;;;;;;;5012107;28;20030;-70
2023/09/13 13:40:43;;;;;;;6.88;1.95;;;;;;;;;;5011308;28;20054;-71
2023/09/13 13:43:09;;;;;;;4.93;2.23;;;;;;;;;;5014572;28;20010;-70
2023/09/13 13:45:34;;;;;;;3.25;1.60;;;;;;;;;;5011582;28;20674;-67
2023/09/13 13:47:59;;;;;;;4.13;1.90;;;;;;;;;;5011621;28;20018;-67
2023/09/13 13:50:24;;;;;;;3.73;1.80;;;;;;;;;;5011301;28;20034;-67
2023/09/13 13:52:50;;;;;;;6.57;1.65;;;;;;;;;;5012084;28;20808;-70
2023/09/13 13:55:15;;;;;;;10.88;2.03;;;;;;;;;;5011239;28;20475;-70
2023/09/13 13:57:42;;;;;;;3.47;1.67;;;;;;;;;;5013438;28;20474;-69
2023/09/13 14:00:09;;;;;;;5.65;2.42;;;;;;;;;;5010856;28;20018;-72
2023/09/13 14:02:36;;;;;;;3.03;1.83;;;;;;;;;;5011803;28;20017;-69
2023/09/13 14:05:03;;;;;;;3.53;1.92;;;;;;;;;;5010929;28;20113;-69
2023/09/13 14:07:28;;;;;;;3.03;1.55;;;;;;;;;;5010947;28;20119;-67
2023/09/13 14:09:54;;;;;;;3.28;1.70;;;;;;;;;;5011537;28;20050;-68
2023/09/13 14:12:19;;;;;;;3.85;1.98;;;;;;;;;;4993335;28;20025;-70
2023/09/13 14:14:44;;;;;;;3.63;1.70;;;;;;;;;;5004549;28;20493;-67
2023/09/13 14:17:09;;;;;;;5.43;2.20;;;;;;;;;;5010429;28;20287;-71
2023/09/13 14:19:34;;;;;;;3.93;2.03;;;;;;;;;;4986088;28;20346;-71
2023/09/13 14:22:00;;;;;;;5.90;1.92;;;;;;;;;;5011219;28;20258;-70
2023/09/13 14:24:25;;;;;;;3.53;2.03;;;;;;;;;;5011452;28;20101;-69
2023/09/13 14:26:51;;;;;;;7.22;2.30;;;;;;;;;;5010288;28;20283;-68
2023/09/13 14:29:16;;;;;;;5.93;1.80;;;;;;;;;;5009995;28;20022;-68